Time;durP1;ratioP1;P1;durP2;ratioP2;P2;SDS_P1;SDS_P2;PMS_P1;PMS_P2;Temp;Humidity;BMP_temperature;BMP_pressure;BME280_temperature;BME280_humidity;BME280_pressure;Samples;Min_cycle;Max_cycle;Signal;HPM_P1;HPM_P2
2023/03/22 00:01:31;;;;;;;16.88;10.77;;;9.50;99.90;;;;;;4989469;28;20084;-75
2023/03/22 00:03:57;;;;;;;19.52;11.13;;;9.50;99.90;;;;;;5005886;28;20057;-79
2023/03/22 00:06:24;;;;;;;16.55;11.88;;;9.50;99.90;;;;;;4987987;28;20514;-75
2023/03/22 00:08:52;;;;;;;14.93;11.68;;;9.50;99.90;;;;;;5005467;28;20061;-75
2023/03/22 00:11:19;;;;;;;19.65;11.70;;;9.50;99.90;;;;;;4986888;28;20038;-78
2023/03/22 00:13:46;;;;;;;16.30;12.02;;;9.50;99.90;;;;;;5004318;28;20026;-75
2023/03/22 00:16:13;;;;;;;16.92;10.85;;;9.60;99.90;;;;;;5004951;28;20045;-80
2023/03/22 00:18:39;;;;;;;16.02;11.30;;;9.60;99.90;;;;;;5016139;28;20041;-80
2023/03/22 00:21:05;;;;;;;15.93;10.82;;;9.60;99.90;;;;;;4991308;28;20034;-80
2023/03/22 00:23:31;;;;;;;18.83;11.13;;;9.60;99.90;;;;;;4990251;28;20034;-75
2023/03/22 00:25:56;;;;;;;16.15;11.50;;;9.70;99.90;;;;;;5005587;28;20520;-78
2023/03/22 00:28:23;;;;;;;16.10;11.88;;;9.60;99.90;;;;;;5001468;28;20022;-77
2023/03/22 00:30:58;;;;;;;19.60;12.13;;;9.70;99.90;;;;;;5006923;28;20030;-80
2023/03/22 00:33:24;;;;;;;21.65;12.10;;;9.70;99.90;;;;;;5007485;28;20025;-79
2023/03/22 00:35:57;;;;;;;19.02;12.95;;;9.60;99.90;;;;;;4990319;28;20220;-78
2023/03/22 00:38:23;;;;;;;18.50;12.27;;;9.70;99.90;;;;;;5002465;28;21231;-75
2023/03/22 00:40:48;;;;;;;18.17;12.63;;;9.60;99.90;;;;;;5009702;28;20026;-81
2023/03/22 00:43:15;;;;;;;20.67;13.40;;;9.70;99.90;;;;;;5007887;28;20022;-74
2023/03/22 00:45:40;;;;;;;18.95;13.73;;;9.60;99.90;;;;;;5006327;28;20103;-75
2023/03/22 00:48:09;;;;;;;17.27;12.93;;;9.70;99.90;;;;;;4998922;28;20065;-74
2023/03/22 00:50:35;;;;;;;23.63;13.25;;;9.70;99.90;;;;;;5002442;28;20029;-75
2023/03/22 00:53:01;;;;;;;17.95;13.25;;;9.70;99.90;;;;;;5004993;28;20042;-75
2023/03/22 00:55:27;;;;;;;18.65;13.00;;;9.70;99.90;;;;;;5007370;28;20030;-75
2023/03/22 00:57:53;;;;;;;21.77;13.57;;;9.60;99.90;;;;;;4990200;28;20490;-75
2023/03/22 01:00:18;;;;;;;21.60;13.65;;;9.60;99.90;;;;;;5008504;28;20026;-80
2023/03/22 01:02:44;;;;;;;23.70;14.82;;;9.70;99.90;;;;;;4988546;28;20025;-78
2023/03/22 01:05:14;;;;;;;22.63;14.90;;;9.70;99.90;;;;;;5006284;28;20105;-75
2023/03/22 01:07:41;;;;;;;20.05;13.30;;;9.70;99.90;;;;;;5006700;28;20124;-79
2023/03/22 01:10:08;;;;;;;21.85;14.25;;;9.70;99.90;;;;;;5007471;28;20034;-74
2023/03/22 01:12:34;;;;;;;21.85;13.93;;;9.80;99.90;;;;;;5005894;28;20555;-78
2023/03/22 01:15:05;;;;;;;25.42;14.40;;;9.80;99.90;;;;;;4989741;28;20034;-78
2023/03/22 01:17:31;;;;;;;21.13;13.88;;;9.80;99.90;;;;;;5007095;28;20025;-78
2023/03/22 01:19:57;;;;;;;19.83;13.43;;;9.80;99.90;;;;;;4991848;28;20398;-78
2023/03/22 01:22:22;;;;;;;21.88;13.43;;;9.80;99.90;;;;;;4991551;28;20030;-77
2023/03/22 01:24:49;;;;;;;20.73;13.70;;;9.80;99.90;;;;;;5009573;28;20557;-77
2023/03/22 01:27:15;;;;;;;24.50;14.90;;;9.80;99.90;;;;;;5003200;28;20032;-75
2023/03/22 01:29:41;;;;;;;21.00;14.80;;;9.80;99.90;;;;;;5009835;28;20030;-78
2023/03/22 01:32:07;;;;;;;22.25;15.20;;;9.80;99.90;;;;;;5009862;28;20034;-80
2023/03/22 01:34:33;;;;;;;23.65;14.52;;;9.90;99.90;;;;;;4993412;28;20032;-75
2023/03/22 01:36:59;;;;;;;29.25;16.73;;;9.90;99.90;;;;;;4987619;28;20694;-75
2023/03/22 01:39:26;;;;;;;23.73;15.23;;;9.80;99.90;;;;;;5007045;28;20030;-75
2023/03/22 01:41:52;;;;;;;20.90;14.52;;;9.90;99.90;;;;;;5008802;28;20080;-79
2023/03/22 01:44:20;;;;;;;21.17;15.13;;;9.90;99.90;;;;;;5007973;28;20029;-78
2023/03/22 01:46:48;;;;;;;25.35;16.05;;;9.90;99.90;;;;;;5008089;28;20033;-78
2023/03/22 01:49:33;;;;;;;26.00;15.60;;;9.90;99.90;;;;;;5007118;28;20034;-75
2023/03/22 01:52:19;;;;;;;22.52;14.68;;;9.80;99.90;;;;;;4989996;28;20034;-75
2023/03/22 01:54:48;;;;;;;21.02;14.98;;;9.90;99.90;;;;;;5032481;28;20046;-75
2023/03/22 01:57:15;;;;;;;19.20;15.30;;;9.90;99.90;;;;;;5006182;28;20034;-79
2023/03/22 01:59:41;;;;;;;27.00;15.80;;;9.90;99.90;;;;;;4989627;28;20036;-75
2023/03/22 02:02:09;;;;;;;21.05;14.60;;;9.90;99.90;;;;;;5003896;28;20030;-78
2023/03/22 02:04:38;;;;;;;22.00;15.13;;;10.00;99.90;;;;;;5008617;28;20022;-80
2023/03/22 02:07:09;;;;;;;24.42;14.57;;;10.00;99.90;;;;;;5004321;28;20051;-80
2023/03/22 02:09:41;;;;;;;21.63;13.90;;;10.00;99.90;;;;;;5005323;28;20033;-79
2023/03/22 02:12:11;;;;;;;24.23;15.32;;;10.00;99.90;;;;;;5006013;28;20116;-75
2023/03/22 02:14:45;;;;;;;21.83;14.15;;;10.00;99.90;;;;;;5005341;28;20056;-75
2023/03/22 02:17:40;;;;;;;20.98;14.57;;;10.00;99.90;;;;;;5001700;28;20103;-81
2023/03/22 02:20:45;;;;;;;20.55;14.82;;;9.90;99.90;;;;;;5005268;28;20740;-75
2023/03/22 02:23:35;;;;;;;21.90;13.85;;;9.90;99.90;;;;;;5005650;28;20117;-79
2023/03/22 02:26:18;;;;;;;19.67;13.98;;;9.90;99.90;;;;;;5006360;28;20042;-74
2023/03/22 02:29:14;;;;;;;20.83;14.25;;;9.90;99.90;;;;;;5007798;28;20030;-78
2023/03/22 02:32:19;;;;;;;23.35;14.57;;;9.90;99.90;;;;;;5002686;28;20029;-77
2023/03/22 02:35:14;;;;;;;21.50;15.18;;;9.90;99.90;;;;;;4989686;28;20026;-75
2023/03/22 02:38:13;;;;;;;21.77;13.75;;;9.90;99.90;;;;;;5006352;28;20080;-75
2023/03/22 02:40:44;;;;;;;21.42;14.60;;;9.90;99.90;;;;;;5004979;28;20124;-78
2023/03/22 02:44:01;;;;;;;21.70;13.43;;;9.90;99.90;;;;;;4987456;28;20067;-77
2023/03/22 02:46:54;;;;;;;24.05;14.23;;;9.90;99.90;;;;;;4930604;28;20039;-79
2023/03/22 02:49:36;;;;;;;25.50;15.50;;;9.90;99.90;;;;;;4943848;28;20202;-74
2023/03/22 02:52:39;;;;;;;21.08;13.98;;;9.90;99.90;;;;;;5010677;28;20048;-75
2023/03/22 02:55:32;;;;;;;20.05;13.05;;;9.90;99.90;;;;;;4997131;28;20587;-78
2023/03/22 02:58:26;;;;;;;22.88;14.73;;;10.00;99.90;;;;;;5005715;28;20347;-75
2023/03/22 03:00:58;;;;;;;23.38;14.35;;;9.90;99.90;;;;;;4982276;28;20545;-76
2023/03/22 03:03:28;;;;;;;17.83;13.52;;;9.90;99.90;;;;;;5006750;28;20041;-77
2023/03/22 03:06:09;;;;;;;22.67;14.00;;;10.00;99.90;;;;;;5003607;28;20029;-75
2023/03/22 03:08:37;;;;;;;22.80;13.77;;;9.90;99.90;;;;;;5004332;28;20196;-81
2023/03/22 03:11:03;;;;;;;20.33;13.38;;;9.90;99.90;;;;;;5004954;28;20045;-78
2023/03/22 03:13:29;;;;;;;21.13;13.90;;;9.90;99.90;;;;;;4988132;28;20057;-79
2023/03/22 03:15:58;;;;;;;17.88;12.55;;;9.90;99.90;;;;;;5005887;28;20749;-78
2023/03/22 03:18:26;;;;;;;21.67;13.55;;;10.00;99.90;;;;;;5003715;28;20040;-75
2023/03/22 03:21:17;;;;;;;18.60;11.25;;;10.00;99.90;;;;;;5006030;28;20060;-77
2023/03/22 03:24:18;;;;;;;17.95;11.65;;;10.00;99.90;;;;;;5006121;28;20121;-75
2023/03/22 03:27:05;;;;;;;19.58;13.40;;;10.00;99.90;;;;;;5004994;28;20092;-75
2023/03/22 03:29:49;;;;;;;18.45;11.75;;;10.00;99.90;;;;;;5004224;28;20101;-75
2023/03/22 03:32:24;;;;;;;23.40;12.65;;;10.00;99.90;;;;;;4989532;28;20698;-77
2023/03/22 03:35:32;;;;;;;19.35;13.00;;;10.00;99.90;;;;;;5005119;28;20032;-79
2023/03/22 03:38:25;;;;;;;21.08;11.88;;;10.00;99.90;;;;;;4964059;28;20543;-80
2023/03/22 03:41:04;;;;;;;16.70;11.07;;;10.00;99.90;;;;;;5000798;28;20062;-78
2023/03/22 03:43:32;;;;;;;16.85;13.00;;;10.10;99.90;;;;;;5004085;28;20129;-79
2023/03/22 03:45:59;;;;;;;18.10;12.82;;;10.10;99.90;;;;;;5005156;28;20018;-80
2023/03/22 03:48:29;;;;;;;18.55;12.40;;;10.10;99.90;;;;;;5004639;28;20034;-85
2023/03/22 03:50:57;;;;;;;18.50;11.90;;;10.10;99.90;;;;;;5007241;28;20084;-78
2023/03/22 03:53:24;;;;;;;16.65;11.30;;;10.00;99.90;;;;;;4995997;28;20040;-76
2023/03/22 03:55:49;;;;;;;18.98;11.60;;;10.00;99.90;;;;;;5011280;28;20109;-75
2023/03/22 03:58:15;;;;;;;21.63;12.00;;;10.10;99.90;;;;;;4998646;28;20132;-79
2023/03/22 04:00:42;;;;;;;19.80;10.90;;;10.00;99.90;;;;;;5005230;28;20030;-74
2023/03/22 04:03:08;;;;;;;19.48;11.90;;;10.00;99.90;;;;;;5005003;28;20041;-75
2023/03/22 04:05:34;;;;;;;18.10;11.40;;;10.00;99.90;;;;;;5006661;28;20089;-75
2023/03/22 04:08:00;;;;;;;17.65;11.38;;;10.00;99.90;;;;;;5000947;28;20045;-75
2023/03/22 04:10:25;;;;;;;17.33;10.85;;;10.00;99.90;;;;;;5007298;28;20034;-79
2023/03/22 04:12:51;;;;;;;18.58;11.95;;;9.90;99.90;;;;;;4989050;28;20092;-78
2023/03/22 04:15:17;;;;;;;20.67;11.32;;;9.90;99.90;;;;;;5007743;28;20030;-78
2023/03/22 04:17:45;;;;;;;15.90;10.68;;;10.10;99.90;;;;;;5005014;28;20488;-75
2023/03/22 04:20:12;;;;;;;17.52;11.13;;;10.10;99.90;;;;;;5005516;28;20026;-75
2023/03/22 04:22:40;;;;;;;18.08;11.13;;;10.00;99.90;;;;;;5002210;28;20132;-78
2023/03/22 04:25:10;;;;;;;15.98;10.73;;;9.90;99.90;;;;;;4985486;28;20132;-77
2023/03/22 04:27:38;;;;;;;18.98;11.32;;;9.90;99.90;;;;;;5030487;28;20052;-78
2023/03/22 04:30:09;;;;;;;16.30;10.57;;;9.90;99.90;;;;;;5009195;28;20448;-75
2023/03/22 04:32:35;;;;;;;18.77;10.40;;;9.90;99.90;;;;;;5006629;28;20471;-75
2023/03/22 04:35:00;;;;;;;16.17;10.80;;;9.90;99.90;;;;;;5007515;28;20036;-75
2023/03/22 04:37:27;;;;;;;15.02;10.38;;;9.90;99.90;;;;;;5004448;28;20033;-75
2023/03/22 04:39:53;;;;;;;17.45;10.82;;;9.90;99.90;;;;;;5010140;28;20117;-75
2023/03/22 04:42:19;;;;;;;14.75;10.05;;;9.90;99.90;;;;;;5006265;28;20439;-76
2023/03/22 04:44:45;;;;;;;15.07;9.80;;;9.90;99.90;;;;;;5010749;28;20026;-79
2023/03/22 04:47:13;;;;;;;16.23;9.60;;;9.90;99.90;;;;;;5008229;28;20091;-79
2023/03/22 04:49:39;;;;;;;16.55;10.43;;;9.90;99.90;;;;;;5010818;28;20058;-79
2023/03/22 04:52:05;;;;;;;15.73;11.05;;;9.90;99.90;;;;;;5009901;28;20120;-79
2023/03/22 04:54:31;;;;;;;17.88;9.88;;;9.90;99.90;;;;;;5006692;28;20026;-79
2023/03/22 04:56:57;;;;;;;16.48;10.02;;;9.90;99.90;;;;;;5007070;28;20034;-80
2023/03/22 04:59:23;;;;;;;17.90;10.38;;;9.90;99.90;;;;;;4992853;28;20018;-74
2023/03/22 05:01:50;;;;;;;15.52;10.25;;;9.90;99.90;;;;;;5010937;28;20371;-78
2023/03/22 05:04:17;;;;;;;16.83;10.43;;;9.90;99.90;;;;;;5007753;28;20438;-75
2023/03/22 05:06:43;;;;;;;17.38;10.55;;;9.90;99.90;;;;;;5009382;28;20052;-73
2023/03/22 05:09:09;;;;;;;16.98;10.50;;;9.90;99.90;;;;;;5032943;28;20034;-75
2023/03/22 05:11:35;;;;;;;16.20;9.57;;;9.90;99.90;;;;;;5005776;28;20048;-74
2023/03/22 05:14:01;;;;;;;17.45;9.95;;;9.90;99.90;;;;;;5008754;28;20069;-74
2023/03/22 05:16:28;;;;;;;15.35;10.13;;;9.90;99.90;;;;;;5008347;28;20112;-79
2023/03/22 05:18:54;;;;;;;15.02;9.98;;;9.90;99.90;;;;;;5009108;28;20057;-77
2023/03/22 05:21:27;;;;;;;15.63;10.07;;;9.90;99.90;;;;;;5006442;28;20053;-78
2023/03/22 05:23:57;;;;;;;15.18;9.50;;;9.90;99.90;;;;;;5019230;28;20057;-78
2023/03/22 05:26:25;;;;;;;17.60;10.30;;;9.90;99.90;;;;;;5003379;28;20158;-78
2023/03/22 05:28:52;;;;;;;18.92;9.48;;;9.90;99.90;;;;;;5007020;28;20018;-78
2023/03/22 05:31:20;;;;;;;14.27;9.63;;;9.90;99.90;;;;;;4990761;28;20069;-78
2023/03/22 05:33:50;;;;;;;15.57;8.77;;;9.90;99.90;;;;;;5008968;28;20030;-79
2023/03/22 05:36:17;;;;;;;15.82;9.48;;;10.00;99.90;;;;;;5011954;28;20091;-79
2023/03/22 05:38:43;;;;;;;16.40;9.25;;;10.00;99.90;;;;;;5015705;28;20056;-73
2023/03/22 05:41:10;;;;;;;15.23;9.52;;;10.00;99.90;;;;;;5009701;28;20030;-73
2023/03/22 05:43:36;;;;;;;17.05;10.00;;;10.00;99.90;;;;;;5009732;28;20034;-83
2023/03/22 05:46:10;;;;;;;14.10;8.93;;;10.00;99.90;;;;;;5034800;28;20026;-79
2023/03/22 05:48:37;;;;;;;14.63;8.07;;;10.00;99.90;;;;;;5022067;28;20438;-74
2023/03/22 05:51:16;;;;;;;13.90;9.00;;;10.00;99.90;;;;;;5005431;28;20100;-74
2023/03/22 05:53:43;;;;;;;14.30;8.15;;;10.10;99.90;;;;;;5008549;28;20102;-73
2023/03/22 05:56:09;;;;;;;16.08;8.95;;;10.10;99.90;;;;;;5007384;28;20075;-73
2023/03/22 05:58:35;;;;;;;13.70;8.15;;;10.10;99.90;;;;;;5008540;28;20049;-73
2023/03/22 06:01:12;;;;;;;15.35;8.45;;;10.10;99.90;;;;;;5012952;28;20535;-77
2023/03/22 06:03:38;;;;;;;16.20;8.18;;;10.00;99.90;;;;;;5002210;28;20026;-74
2023/03/22 06:06:09;;;;;;;12.55;8.13;;;10.00;99.90;;;;;;5005661;28;20089;-74
2023/03/22 06:08:39;;;;;;;14.07;7.75;;;10.00;99.90;;;;;;5009845;28;20041;-77
2023/03/22 06:11:05;;;;;;;21.83;8.77;;;10.10;99.90;;;;;;5013824;28;20084;-79
2023/03/22 06:13:32;;;;;;;14.73;8.10;;;10.10;99.90;;;;;;5006865;28;20030;-73
2023/03/22 06:16:02;;;;;;;14.65;7.70;;;10.10;99.90;;;;;;5018247;28;20022;-74
2023/03/22 06:18:29;;;;;;;17.00;7.60;;;10.10;99.90;;;;;;5004436;28;20030;-77
2023/03/22 06:20:55;;;;;;;19.65;8.25;;;10.10;99.90;;;;;;5005098;28;20578;-75
2023/03/22 06:23:21;;;;;;;15.75;7.72;;;10.10;99.90;;;;;;5012907;28;20018;-74
2023/03/22 06:25:47;;;;;;;13.70;7.57;;;10.10;99.90;;;;;;5036651;28;20053;-73
2023/03/22 06:28:13;;;;;;;15.20;8.13;;;10.20;99.90;;;;;;5010368;28;20022;-73
2023/03/22 06:30:39;;;;;;;20.55;9.10;;;10.30;99.90;;;;;;5032301;28;20049;-73
2023/03/22 06:33:05;;;;;;;19.90;7.85;;;10.30;99.90;;;;;;4994007;28;20064;-74
2023/03/22 06:35:32;;;;;;;16.75;7.97;;;10.40;99.90;;;;;;5007788;28;20435;-80
2023/03/22 06:37:58;;;;;;;19.63;7.70;;;10.50;99.90;;;;;;4993998;28;20179;-75
2023/03/22 06:40:25;;;;;;;20.60;7.68;;;10.50;99.90;;;;;;5007891;28;20014;-76
2023/03/22 06:42:53;;;;;;;17.75;7.28;;;10.60;99.90;;;;;;4991332;28;20507;-79
2023/03/22 06:45:22;;;;;;;18.50;7.78;;;10.70;99.90;;;;;;5001385;28;20461;-74
2023/03/22 06:47:49;;;;;;;10.90;6.70;;;10.60;99.90;;;;;;5004183;28;20049;-74
2023/03/22 06:50:15;;;;;;;15.27;6.93;;;10.70;99.90;;;;;;5008089;28;20109;-73
2023/03/22 06:52:40;;;;;;;9.98;6.75;;;10.70;99.90;;;;;;5000762;28;20095;-73
2023/03/22 06:55:07;;;;;;;14.18;6.80;;;10.70;99.90;;;;;;5007844;28;20034;-73
2023/03/22 06:57:32;;;;;;;17.05;6.80;;;10.70;99.90;;;;;;5003741;28;20532;-77
2023/03/22 06:59:58;;;;;;;13.95;6.28;;;10.70;99.90;;;;;;5002346;28;20034;-74
2023/03/22 07:02:24;;;;;;;13.35;6.50;;;10.70;99.90;;;;;;5004900;28;20033;-74
2023/03/22 07:04:49;;;;;;;13.10;6.88;;;10.70;99.90;;;;;;5005007;28;20029;-72
2023/03/22 07:07:15;;;;;;;10.30;6.03;;;10.70;99.90;;;;;;5004551;28;20489;-74
2023/03/22 07:09:41;;;;;;;12.40;6.47;;;10.80;99.90;;;;;;5009893;28;20057;-80
2023/03/22 07:12:06;;;;;;;13.38;6.38;;;10.80;99.90;;;;;;4989615;28;20034;-73
2023/03/22 07:14:32;;;;;;;13.02;7.60;;;10.80;99.90;;;;;;5003627;28;20448;-74
2023/03/22 07:16:58;;;;;;;12.45;7.28;;;10.80;99.90;;;;;;5007796;28;20040;-78
2023/03/22 07:19:26;;;;;;;10.75;7.25;;;10.90;99.90;;;;;;5010425;28;20030;-78
2023/03/22 07:21:52;;;;;;;16.10;8.23;;;10.90;99.90;;;;;;5010607;28;20691;-74
2023/03/22 07:24:18;;;;;;;16.55;7.80;;;10.90;99.90;;;;;;5006923;28;20188;-74
2023/03/22 07:26:47;;;;;;;13.70;7.78;;;10.90;99.90;;;;;;5001970;28;20044;-74
2023/03/22 07:29:13;;;;;;;12.15;7.80;;;10.90;99.90;;;;;;5002852;28;20061;-78
2023/03/22 07:31:39;;;;;;;13.43;7.53;;;10.90;99.90;;;;;;5003451;28;20533;-78
2023/03/22 07:34:05;;;;;;;16.75;8.43;;;10.90;99.90;;;;;;5004744;28;20041;-80
2023/03/22 07:36:32;;;;;;;15.68;9.25;;;10.90;99.90;;;;;;5031957;28;20030;-74
2023/03/22 07:38:57;;;;;;;15.68;8.70;;;10.90;99.90;;;;;;5005099;28;20137;-74
2023/03/22 07:41:24;;;;;;;15.57;9.23;;;11.00;99.90;;;;;;5008847;28;20104;-81
2023/03/22 07:43:50;;;;;;;15.70;8.82;;;11.00;99.90;;;;;;4988819;28;20208;-74
2023/03/22 07:46:16;;;;;;;18.35;9.88;;;11.10;99.90;;;;;;5008827;28;20541;-78
2023/03/22 07:48:41;;;;;;;20.10;10.18;;;11.10;99.90;;;;;;5002366;28;20030;-73
2023/03/22 07:51:07;;;;;;;17.60;9.68;;;11.20;99.90;;;;;;4996810;28;20076;-73
2023/03/22 07:53:35;;;;;;;15.77;9.80;;;11.20;99.90;;;;;;5000085;28;20025;-74
2023/03/22 07:56:02;;;;;;;18.45;9.82;;;11.20;99.90;;;;;;5002134;28;20038;-74
2023/03/22 07:58:28;;;;;;;18.83;10.02;;;11.30;99.90;;;;;;5000228;28;20436;-74
2023/03/22 08:00:53;;;;;;;16.67;9.60;;;11.30;99.90;;;;;;5004048;28;20086;-74
2023/03/22 08:03:20;;;;;;;15.10;10.10;;;11.30;99.90;;;;;;4994707;28;20072;-74
2023/03/22 08:05:47;;;;;;;16.55;10.30;;;11.30;99.90;;;;;;5029125;28;20110;-80
2023/03/22 08:08:13;;;;;;;19.95;10.35;;;11.30;99.90;;;;;;5012994;28;20037;-78
2023/03/22 08:10:38;;;;;;;19.08;10.95;;;11.30;99.90;;;;;;4994004;28;20034;-74
2023/03/22 08:13:04;;;;;;;14.23;9.70;;;11.30;99.90;;;;;;5006550;28;20037;-83
2023/03/22 08:15:30;;;;;;;16.30;10.57;;;11.40;99.90;;;;;;4990340;28;21583;-77
2023/03/22 08:17:56;;;;;;;19.58;11.57;;;11.40;99.90;;;;;;5009698;28;20065;-80
2023/03/22 08:20:26;;;;;;;15.70;10.05;;;11.40;99.90;;;;;;5009502;28;20026;-73
2023/03/22 08:22:53;;;;;;;16.58;10.98;;;11.40;99.90;;;;;;5008399;28;20045;-79
2023/03/22 08:25:19;;;;;;;16.23;10.38;;;11.50;99.90;;;;;;4994783;28;20022;-77
2023/03/22 08:27:46;;;;;;;16.92;9.80;;;11.50;99.90;;;;;;5010077;28;20065;-81
2023/03/22 08:30:13;;;;;;;15.73;10.07;;;11.50;99.90;;;;;;5008389;28;20141;-75
2023/03/22 08:32:39;;;;;;;17.10;10.68;;;11.50;99.90;;;;;;5007035;28;20079;-73
2023/03/22 08:35:06;;;;;;;17.35;10.10;;;11.50;99.90;;;;;;5011590;28;20590;-76
2023/03/22 08:37:32;;;;;;;19.00;10.95;;;11.40;99.90;;;;;;4995330;28;20125;-80
2023/03/22 08:39:57;;;;;;;14.73;9.80;;;11.40;99.90;;;;;;4995073;28;20121;-76
2023/03/22 08:42:23;;;;;;;18.38;10.27;;;11.40;99.90;;;;;;4995437;28;20033;-74
2023/03/22 08:44:50;;;;;;;15.55;11.02;;;11.50;99.90;;;;;;5009024;28;20030;-74
2023/03/22 08:47:17;;;;;;;19.75;10.30;;;11.70;99.90;;;;;;5013388;28;20059;-77
2023/03/22 08:49:43;;;;;;;18.00;9.45;;;11.80;99.90;;;;;;5011205;28;20037;-74
2023/03/22 08:52:10;;;;;;;15.98;8.85;;;12.00;99.90;;;;;;5012431;28;20421;-77
2023/03/22 08:54:37;;;;;;;17.35;9.15;;;12.10;99.90;;;;;;5010649;28;20053;-77
2023/03/22 08:57:03;;;;;;;18.58;8.80;;;12.20;99.90;;;;;;4993218;28;20049;-80
2023/03/22 08:59:29;;;;;;;13.57;8.68;;;12.20;99.90;;;;;;5008066;28;20036;-77
2023/03/22 09:01:55;;;;;;;14.13;9.07;;;12.30;99.90;;;;;;4996736;28;20037;-79
2023/03/22 09:04:20;;;;;;;13.40;8.43;;;12.30;99.90;;;;;;4997127;28;20112;-74
2023/03/22 09:06:46;;;;;;;12.32;8.55;;;12.40;99.90;;;;;;5012599;28;20498;-77
2023/03/22 09:09:12;;;;;;;15.85;8.93;;;12.40;99.90;;;;;;5017851;28;20072;-77
2023/03/22 09:11:40;;;;;;;12.90;7.53;;;12.40;99.90;;;;;;5010413;28;20033;-77
2023/03/22 09:14:05;;;;;;;19.38;8.45;;;12.50;99.90;;;;;;4992664;28;20030;-75
2023/03/22 09:16:31;;;;;;;12.35;7.88;;;12.50;99.90;;;;;;5011131;28;20022;-75
2023/03/22 09:18:57;;;;;;;17.50;8.05;;;12.50;99.90;;;;;;5012299;28;20026;-77
2023/03/22 09:21:23;;;;;;;14.35;7.70;;;12.60;99.90;;;;;;5010881;28;20044;-74
2023/03/22 09:23:49;;;;;;;13.75;8.27;;;12.60;99.90;;;;;;5009816;28;20026;-77
2023/03/22 09:26:15;;;;;;;12.30;7.03;;;12.80;99.90;;;;;;5014085;28;20466;-74
2023/03/22 09:28:41;;;;;;;14.68;7.47;;;12.90;99.90;;;;;;4993437;28;20030;-79
2023/03/22 09:31:08;;;;;;;11.77;6.88;;;13.00;99.90;;;;;;5011075;28;20036;-74
2023/03/22 09:33:37;;;;;;;11.50;6.72;;;13.00;99.90;;;;;;5007391;28;20061;-75
2023/03/22 09:36:03;;;;;;;13.27;5.88;;;13.00;99.90;;;;;;5010321;28;20037;-79
2023/03/22 09:38:32;;;;;;;13.82;6.60;;;13.00;99.90;;;;;;4994683;28;20490;-73
2023/03/22 09:41:02;;;;;;;13.40;6.90;;;13.10;99.90;;;;;;5007242;28;20040;-80
2023/03/22 09:43:38;;;;;;;14.32;5.93;;;13.10;99.90;;;;;;5006204;28;20029;-79
2023/03/22 09:46:11;;;;;;;15.07;6.95;;;13.10;99.90;;;;;;5020189;28;20026;-78
2023/03/22 09:48:39;;;;;;;11.55;6.22;;;13.00;99.90;;;;;;5011870;28;20058;-75
2023/03/22 09:51:21;;;;;;;13.48;5.93;;;13.00;99.90;;;;;;5008255;28;20041;-79
2023/03/22 09:53:47;;;;;;;14.20;6.63;;;13.00;99.90;;;;;;4992665;28;20048;-78
2023/03/22 09:56:24;;;;;;;12.18;5.47;;;13.10;99.90;;;;;;5011914;28;20026;-75
2023/03/22 09:59:14;;;;;;;12.15;4.93;;;13.00;99.90;;;;;;5007167;28;20030;-76
2023/03/22 10:01:59;;;;;;;12.98;5.25;;;13.00;99.90;;;;;;5036276;28;20030;-74
2023/03/22 10:04:38;;;;;;;10.20;4.78;;;13.10;99.90;;;;;;5019931;28;20513;-76
2023/03/22 10:07:29;;;;;;;11.10;4.75;;;13.20;99.90;;;;;;5009681;28;20040;-78
2023/03/22 10:10:10;;;;;;;;;;;13.20;99.90;;;;;;5009906;28;20334;-77
2023/03/22 10:12:42;;;;;;;;;;;13.20;99.90;;;;;;4992475;28;20004;-78
2023/03/22 10:15:16;;;;;;;11.02;4.72;;;13.30;99.90;;;;;;5008961;28;19944;-78
2023/03/22 10:17:46;;;;;;;9.98;3.92;;;13.40;99.90;;;;;;5010096;28;20029;-75
2023/03/22 10:20:22;;;;;;;9.10;4.15;;;13.40;99.90;;;;;;5010375;28;20030;-76
2023/03/22 10:22:50;;;;;;;9.43;3.80;;;13.30;99.90;;;;;;5007672;28;20441;-75
2023/03/22 10:25:20;;;;;;;13.45;4.15;;;13.30;99.90;;;;;;5010802;28;20484;-74
2023/03/22 10:27:49;;;;;;;9.40;3.58;;;13.20;99.90;;;;;;5006084;28;20034;-74
2023/03/22 10:30:24;;;;;;;8.98;3.88;;;13.20;99.90;;;;;;5008283;28;20034;-73
2023/03/22 10:32:49;;;;;;;11.02;3.85;;;13.20;99.90;;;;;;5007438;28;20033;-76
2023/03/22 10:35:18;;;;;;;7.38;3.65;;;13.30;99.90;;;;;;5010812;28;20101;-79
2023/03/22 10:37:47;;;;;;;9.30;3.75;;;13.30;99.90;;;;;;5006832;28;20100;-74
2023/03/22 10:40:25;;;;;;;7.28;3.80;;;13.20;99.90;;;;;;5009298;28;20097;-75
2023/03/22 10:42:55;;;;;;;10.07;3.38;;;13.30;99.90;;;;;;5008010;28;20076;-74
2023/03/22 10:45:23;;;;;;;11.68;3.08;;;13.30;99.90;;;;;;5015301;28;20052;-78
2023/03/22 10:48:08;;;;;;;8.30;2.88;;;13.40;99.90;;;;;;4996523;28;20033;-78
2023/03/22 10:50:36;;;;;;;13.93;3.78;;;13.40;99.90;;;;;;5010024;28;20036;-75
2023/03/22 10:53:04;;;;;;;8.02;3.25;;;13.50;99.90;;;;;;5007970;28;20099;-76
2023/03/22 10:55:30;;;;;;;12.65;2.85;;;13.60;99.90;;;;;;5009440;28;20045;-75
2023/03/22 10:58:16;;;;;;;8.75;3.03;;;13.60;99.90;;;;;;5009391;28;20034;-76
2023/03/22 11:00:55;;;;;;;9.60;2.90;;;13.60;99.90;;;;;;5007885;28;20014;-81
2023/03/22 11:03:42;;;;;;;10.13;3.78;;;13.50;99.90;;;;;;5008402;28;20302;-79
2023/03/22 11:06:12;;;;;;;16.92;4.03;;;13.50;99.90;;;;;;5008404;28;20084;-75
2023/03/22 11:08:39;;;;;;;8.65;3.10;;;13.50;99.90;;;;;;4993538;28;20022;-75
2023/03/22 11:11:13;;;;;;;9.43;3.72;;;13.50;99.90;;;;;;4992998;28;20068;-78
2023/03/22 11:13:39;;;;;;;9.50;3.22;;;13.50;99.90;;;;;;4991010;28;20433;-78
2023/03/22 11:16:05;;;;;;;10.98;3.45;;;13.60;99.90;;;;;;5008222;28;20117;-79
2023/03/22 11:18:34;;;;;;;7.43;3.00;;;13.60;99.90;;;;;;4990569;28;20041;-76
2023/03/22 11:21:09;;;;;;;8.65;4.07;;;13.60;99.90;;;;;;4989490;28;20540;-74
2023/03/22 11:23:37;;;;;;;4.53;2.80;;;13.70;99.90;;;;;;4988899;28;20049;-81
2023/03/22 11:26:12;;;;;;;5.68;2.40;;;13.70;99.90;;;;;;4991562;28;20030;-80
2023/03/22 11:28:49;;;;;;;6.13;2.88;;;13.70;99.90;;;;;;5034219;28;20386;-73
2023/03/22 11:31:17;;;;;;;8.25;2.88;;;13.70;99.90;;;;;;5008275;28;20501;-73
2023/03/22 11:33:58;;;;;;;6.32;2.90;;;13.70;99.90;;;;;;5007618;28;20053;-75
2023/03/22 11:36:25;;;;;;;10.38;3.05;;;13.60;99.90;;;;;;5008023;28;20081;-74
2023/03/22 11:39:00;;;;;;;11.07;3.35;;;13.60;99.90;;;;;;5007721;28;20096;-73
2023/03/22 11:41:30;;;;;;;7.07;2.97;;;13.60;99.90;;;;;;5012097;28;20025;-79
2023/03/22 11:44:01;;;;;;;6.30;2.60;;;13.60;99.90;;;;;;5006373;28;20057;-76
2023/03/22 11:46:28;;;;;;;9.48;3.10;;;13.70;99.90;;;;;;5009202;28;20032;-76
2023/03/22 11:49:01;;;;;;;7.35;2.80;;;13.60;99.90;;;;;;5009078;28;20507;-74
2023/03/22 11:51:32;;;;;;;11.90;2.78;;;13.60;99.90;;;;;;5031337;28;20037;-74
2023/03/22 11:54:09;;;;;;;8.23;3.08;;;13.50;99.90;;;;;;5007717;28;20044;-76
2023/03/22 11:56:41;;;;;;;5.32;2.35;;;13.50;99.90;;;;;;5009627;28;20100;-79
2023/03/22 11:59:22;;;;;;;11.60;3.20;;;13.60;99.90;;;;;;5006128;28;20093;-77
2023/03/22 12:01:55;;;;;;;8.10;2.63;;;13.60;99.90;;;;;;5008319;28;20026;-76
2023/03/22 12:04:28;;;;;;;9.10;3.45;;;13.70;99.90;;;;;;5008218;28;20022;-74
2023/03/22 12:07:01;;;;;;;7.80;3.00;;;13.70;99.90;;;;;;5006405;28;20026;-77
2023/03/22 12:09:35;;;;;;;12.02;3.40;;;13.60;99.90;;;;;;5009197;28;20044;-77
2023/03/22 12:12:03;;;;;;;5.10;3.00;;;13.60;99.90;;;;;;5029335;28;20022;-78
2023/03/22 12:14:44;;;;;;;6.22;3.10;;;13.60;99.90;;;;;;5007674;28;20026;-76
2023/03/22 12:17:19;;;;;;;5.47;2.85;;;13.60;99.90;;;;;;5010080;28;20099;-76
2023/03/22 12:19:59;;;;;;;5.78;2.92;;;13.60;99.90;;;;;;5009482;28;20026;-76
2023/03/22 12:22:30;;;;;;;9.70;4.03;;;13.70;99.90;;;;;;5007062;28;20468;-75
2023/03/22 12:24:57;;;;;;;;;;;13.70;99.90;;;;;;5007088;28;20045;-74
2023/03/22 12:27:36;;;;;;;7.07;3.90;;;13.80;99.90;;;;;;5009738;28;20072;-74
2023/03/22 12:30:27;;;;;;;10.32;3.95;;;13.80;99.90;;;;;;5010652;28;20513;-74
2023/03/22 12:33:05;;;;;;;6.85;3.65;;;13.80;99.90;;;;;;5006707;28;20049;-75
2023/03/22 12:35:35;;;;;;;9.88;4.22;;;13.80;99.90;;;;;;5006394;28;20049;-76
2023/03/22 12:38:19;;;;;;;13.88;4.07;;;13.70;99.90;;;;;;5016741;28;20032;-84
2023/03/22 12:40:46;;;;;;;7.80;3.67;;;13.70;99.90;;;;;;5007103;28;20026;-77
2023/03/22 12:43:33;;;;;;;6.40;3.83;;;13.70;99.90;;;;;;5018057;28;20022;-77
2023/03/22 12:46:02;;;;;;;7.10;3.70;;;13.60;99.90;;;;;;4990558;28;20030;-77
2023/03/22 12:48:39;;;;;;;9.02;3.50;;;13.70;99.90;;;;;;4991939;28;20095;-78
2023/03/22 12:51:07;;;;;;;8.70;3.47;;;13.60;99.90;;;;;;4993878;28;20032;-75
2023/03/22 12:53:44;;;;;;;7.72;3.40;;;13.60;99.90;;;;;;5009289;28;20409;-74
2023/03/22 12:56:14;;;;;;;6.78;3.20;;;13.50;99.90;;;;;;5008466;28;20052;-74